createdAt,value
2019-02-17T00:00:26.407Z,6.9
2019-02-17T00:01:27.790Z,7.0
2019-02-17T00:02:29.176Z,6.9
2019-02-17T00:03:30.564Z,6.9
2019-02-17T00:04:31.951Z,6.9
2019-02-17T00:05:33.331Z,6.8
2019-02-17T00:06:34.716Z,6.9
2019-02-17T00:07:36.099Z,6.9
2019-02-17T00:08:37.482Z,6.8
2019-02-17T00:09:38.870Z,6.9
2019-02-17T00:10:40.305Z,6.9
2019-02-17T00:11:41.658Z,6.9
2019-02-17T00:12:43.039Z,6.8
2019-02-17T00:13:44.423Z,6.8
2019-02-17T00:14:45.836Z,6.9
2019-02-17T00:15:47.200Z,6.8
2019-02-17T00:16:48.589Z,6.7
2019-02-17T00:17:49.976Z,6.9
2019-02-17T00:18:51.363Z,7.0
2019-02-17T00:19:52.749Z,6.8
2019-02-17T00:20:54.135Z,6.9
2019-02-17T00:21:55.521Z,6.9
2019-02-17T00:22:56.905Z,7.0
2019-02-17T00:23:58.407Z,7.0
2019-02-17T00:24:59.821Z,7.0
2019-02-17T00:26:01.220Z,7.1
2019-02-17T00:27:02.603Z,7.1
2019-02-17T00:28:03.994Z,7.1
2019-02-17T00:29:05.377Z,7.1
2019-02-17T00:30:06.768Z,7.1
2019-02-17T00:31:08.155Z,7.1
2019-02-17T00:32:09.543Z,7.1
2019-02-17T00:33:10.932Z,7.1
2019-02-17T00:34:13.723Z,7.1
2019-02-17T00:35:13.667Z,7.1
2019-02-17T00:36:15.051Z,7.1
2019-02-17T00:37:16.436Z,7.1
2019-02-17T00:38:17.817Z,7.1
2019-02-17T00:39:19.209Z,7.2
2019-02-17T00:40:20.597Z,7.2
2019-02-17T00:41:21.948Z,7.1
2019-02-17T00:42:23.329Z,7.2
2019-02-17T00:43:24.718Z,7.1
2019-02-17T00:44:26.103Z,7.0
2019-02-17T00:45:27.488Z,7.0
2019-02-17T00:46:28.876Z,6.9
2019-02-17T00:47:30.260Z,6.9
2019-02-17T00:48:31.650Z,6.9
2019-02-17T00:49:33.034Z,6.8
2019-02-17T00:50:34.419Z,6.9
2019-02-17T00:51:35.807Z,6.8
2019-02-17T00:52:37.200Z,6.9
2019-02-17T00:53:38.612Z,6.8
2019-02-17T00:54:40.003Z,6.8
2019-02-17T00:55:41.386Z,6.7
2019-02-17T00:56:42.769Z,6.7
2019-02-17T00:57:44.153Z,6.7
2019-02-17T00:58:45.538Z,6.7
2019-02-17T00:59:46.922Z,6.7
2019-02-17T01:00:48.309Z,6.7
2019-02-17T01:01:49.703Z,6.7
2019-02-17T01:02:51.098Z,6.7
2019-02-17T01:03:52.481Z,6.7
2019-02-17T01:04:53.867Z,6.7
2019-02-17T01:05:55.254Z,6.7
2019-02-17T01:06:56.644Z,6.5
2019-02-17T01:07:58.031Z,6.7
2019-02-17T01:08:59.420Z,6.7
2019-02-17T01:10:00.807Z,6.6
2019-02-17T01:11:02.191Z,6.6
2019-02-17T01:12:03.575Z,6.6
2019-02-17T01:13:04.958Z,6.6
2019-02-17T01:14:06.355Z,6.6
2019-02-17T01:15:07.787Z,6.5
2019-02-17T01:16:09.178Z,6.5
2019-02-17T01:17:10.565Z,6.5
2019-02-17T01:18:11.951Z,6.5
2019-02-17T01:19:13.339Z,6.4
2019-02-17T01:20:14.724Z,6.3
2019-02-17T01:21:16.110Z,6.3
2019-02-17T01:22:17.505Z,6.3
2019-02-17T01:23:18.891Z,6.3
2019-02-17T01:24:20.275Z,6.3
2019-02-17T01:25:21.665Z,6.3
2019-02-17T01:26:23.053Z,6.3
2019-02-17T01:27:24.438Z,6.4
2019-02-17T01:28:25.821Z,6.3
2019-02-17T01:29:27.217Z,6.3
2019-02-17T01:30:28.604Z,6.3
2019-02-17T01:31:29.993Z,6.3
2019-02-17T01:32:31.377Z,6.3
2019-02-17T01:33:32.764Z,6.4
2019-02-17T01:34:34.151Z,6.3
2019-02-17T01:35:35.534Z,6.3
2019-02-17T01:36:36.927Z,6.3
2019-02-17T01:37:38.316Z,6.3
2019-02-17T01:38:39.706Z,6.4
2019-02-17T01:39:41.096Z,6.4
2019-02-17T01:40:42.480Z,6.3
2019-02-17T01:41:43.862Z,6.4
2019-02-17T01:42:45.251Z,6.4
2019-02-17T01:43:46.636Z,6.3
2019-02-17T01:44:48.023Z,6.3
2019-02-17T01:45:49.412Z,6.3
2019-02-17T01:46:50.796Z,6.3
2019-02-17T01:47:52.187Z,6.2
2019-02-17T01:48:53.566Z,6.3
2019-02-17T01:49:54.952Z,6.3
2019-02-17T01:50:56.342Z,6.3
2019-02-17T01:51:57.733Z,6.3
2019-02-17T01:52:59.112Z,6.3
2019-02-17T01:54:00.495Z,6.2
2019-02-17T01:55:01.885Z,6.1
2019-02-17T01:56:03.272Z,6.2
2019-02-17T01:57:04.660Z,6.1
2019-02-17T01:58:06.046Z,6.1
2019-02-17T01:59:07.441Z,6.1
2019-02-17T02:00:08.823Z,6.1
2019-02-17T02:01:10.213Z,6.1
2019-02-17T02:02:11.602Z,6.1
2019-02-17T02:03:12.987Z,6.1
2019-02-17T02:04:14.410Z,6.0
2019-02-17T02:05:15.885Z,6.0
2019-02-17T02:06:17.264Z,5.9
2019-02-17T02:07:18.651Z,5.9
2019-02-17T02:08:20.040Z,5.9
2019-02-17T02:09:21.430Z,5.9
2019-02-17T02:10:22.823Z,5.9
2019-02-17T02:11:24.207Z,5.8
2019-02-17T02:12:25.597Z,5.8
2019-02-17T02:13:26.981Z,5.8
2019-02-17T02:14:28.365Z,5.8
2019-02-17T02:15:29.745Z,5.8
2019-02-17T02:16:31.132Z,5.8
2019-02-17T02:17:32.521Z,5.8
2019-02-17T02:18:33.902Z,5.8
2019-02-17T02:19:35.291Z,5.7
2019-02-17T02:20:36.677Z,5.8
2019-02-17T02:21:38.062Z,5.6
2019-02-17T02:22:39.457Z,5.7
2019-02-17T02:23:40.832Z,5.7
2019-02-17T02:24:42.229Z,5.6
2019-02-17T02:25:43.607Z,5.5
2019-02-17T02:26:44.993Z,5.6
2019-02-17T02:27:46.385Z,5.5
2019-02-17T02:28:47.768Z,5.6
2019-02-17T02:29:49.151Z,5.6
2019-02-17T02:30:50.535Z,5.6
2019-02-17T02:31:51.920Z,5.6
2019-02-17T02:32:53.303Z,5.6
2019-02-17T02:33:54.691Z,5.5
2019-02-17T02:34:56.079Z,5.5
2019-02-17T02:35:57.460Z,5.5
2019-02-17T02:36:58.851Z,5.5
2019-02-17T02:38:00.233Z,5.5
2019-02-17T02:39:01.617Z,5.6
2019-02-17T02:40:03.005Z,5.5
2019-02-17T02:41:04.396Z,5.6
2019-02-17T02:42:05.832Z,5.6
2019-02-17T02:43:07.247Z,5.6
2019-02-17T02:44:08.638Z,5.5
2019-02-17T02:45:10.015Z,5.4
2019-02-17T02:46:11.406Z,5.6
2019-02-17T02:47:12.791Z,5.6
2019-02-17T02:48:14.185Z,5.5
2019-02-17T02:49:15.561Z,5.5
2019-02-17T02:50:16.942Z,5.5
2019-02-17T02:51:18.328Z,5.5
2019-02-17T02:52:19.711Z,5.4
2019-02-17T02:53:21.096Z,5.6
2019-02-17T02:54:22.481Z,5.5
2019-02-17T02:55:23.945Z,5.6
2019-02-17T02:56:25.336Z,5.6
2019-02-17T02:57:26.720Z,5.5
2019-02-17T02:58:28.106Z,5.5
2019-02-17T02:59:29.491Z,5.6
2019-02-17T03:00:30.883Z,5.6
2019-02-17T03:01:32.271Z,5.7
2019-02-17T03:02:33.655Z,5.6
2019-02-17T03:03:35.040Z,5.6
2019-02-17T03:04:36.437Z,5.6
2019-02-17T03:05:37.830Z,5.7
2019-02-17T03:06:39.213Z,5.7
2019-02-17T03:07:40.599Z,5.7
2019-02-17T03:08:41.986Z,5.8
2019-02-17T03:09:43.372Z,5.8
2019-02-17T03:10:44.757Z,5.8
2019-02-17T03:11:46.142Z,5.8
2019-02-17T03:12:47.529Z,5.8
2019-02-17T03:13:48.920Z,5.8
2019-02-17T03:14:50.312Z,5.8
2019-02-17T03:15:51.698Z,5.8
2019-02-17T03:16:53.086Z,5.8
2019-02-17T03:17:54.476Z,5.8
2019-02-17T03:18:55.861Z,5.7
2019-02-17T03:19:57.244Z,5.8
2019-02-17T03:20:58.633Z,5.7
2019-02-17T03:22:00.018Z,5.8
2019-02-17T03:23:01.407Z,5.7
2019-02-17T03:24:02.797Z,5.7
2019-02-17T03:25:04.175Z,5.6
2019-02-17T03:26:05.562Z,5.6
2019-02-17T03:27:06.955Z,5.6
2019-02-17T03:28:08.345Z,5.6
2019-02-17T03:29:09.727Z,5.5
2019-02-17T03:30:11.182Z,5.6
2019-02-17T03:31:12.644Z,5.6
2019-02-17T03:32:14.022Z,5.4
2019-02-17T03:33:15.413Z,5.5
2019-02-17T03:34:16.786Z,5.5
2019-02-17T03:35:18.237Z,5.5
2019-02-17T03:36:19.615Z,5.5
2019-02-17T03:37:20.997Z,5.5
2019-02-17T03:38:22.383Z,5.4
2019-02-17T03:39:23.768Z,5.4
2019-02-17T03:40:25.153Z,5.4
2019-02-17T03:41:26.610Z,5.4
2019-02-17T03:42:27.887Z,5.5
2019-02-17T03:43:29.268Z,5.5
2019-02-17T03:44:30.708Z,5.5
2019-02-17T03:45:32.159Z,5.5
2019-02-17T03:46:33.544Z,5.5
2019-02-17T03:47:34.935Z,5.4
2019-02-17T03:48:36.327Z,5.5
2019-02-17T03:49:37.711Z,5.5
2019-02-17T03:50:39.101Z,5.4
2019-02-17T03:51:40.490Z,5.5
2019-02-17T03:52:41.890Z,5.4
2019-02-17T03:53:43.277Z,5.5
2019-02-17T03:54:44.674Z,5.5
2019-02-17T03:55:46.101Z,5.5
2019-02-17T03:56:47.491Z,5.5
2019-02-17T03:57:48.919Z,5.5
2019-02-17T03:58:50.306Z,5.5
2019-02-17T03:59:51.694Z,5.5
2019-02-17T04:00:53.081Z,5.5
2019-02-17T04:01:54.463Z,5.4
2019-02-17T04:02:55.852Z,5.4
2019-02-17T04:03:57.237Z,5.4
2019-02-17T04:04:58.677Z,5.4
2019-02-17T04:06:00.061Z,5.4
2019-02-17T04:07:01.451Z,5.3
2019-02-17T04:08:02.847Z,5.4
2019-02-17T04:09:04.230Z,5.4
2019-02-17T04:10:05.636Z,5.3
2019-02-17T04:11:07.008Z,5.2
2019-02-17T04:12:08.415Z,5.3
2019-02-17T04:13:09.796Z,5.2
2019-02-17T04:14:11.186Z,5.3
2019-02-17T04:15:12.595Z,5.2
2019-02-17T04:16:13.951Z,5.2
2019-02-17T04:17:15.339Z,5.2
2019-02-17T04:18:16.750Z,5.2
2019-02-17T04:19:18.157Z,5.2
2019-02-17T04:20:19.534Z,5.2
2019-02-17T04:21:20.928Z,5.2
2019-02-17T04:22:22.320Z,5.2
2019-02-17T04:23:30.762Z,5.2
2019-02-17T04:24:25.207Z,5.2
2019-02-17T04:25:26.574Z,5.1
2019-02-17T04:26:27.962Z,5.1
2019-02-17T04:27:29.356Z,5.1
2019-02-17T04:28:30.740Z,5.1
2019-02-17T04:29:32.127Z,5.1
2019-02-17T04:30:33.517Z,5.0
2019-02-17T04:31:34.913Z,5.1
2019-02-17T04:32:36.300Z,5.1
2019-02-17T04:33:37.684Z,5.1
2019-02-17T04:34:39.139Z,5.1
2019-02-17T04:35:40.548Z,5.1
2019-02-17T04:36:41.936Z,5.0
2019-02-17T04:37:43.324Z,5.1
2019-02-17T04:38:44.712Z,5.0
2019-02-17T04:39:46.100Z,5.1
2019-02-17T04:40:47.490Z,5.0
2019-02-17T04:41:48.874Z,4.9
2019-02-17T04:42:50.264Z,4.9
2019-02-17T04:43:51.655Z,4.9
2019-02-17T04:44:53.032Z,4.9
2019-02-17T04:45:54.418Z,5.0
2019-02-17T04:46:55.804Z,4.9
2019-02-17T04:47:57.191Z,4.9
2019-02-17T04:48:58.609Z,5.0
2019-02-17T04:50:00.000Z,4.9
2019-02-17T04:51:01.385Z,4.9
2019-02-17T04:52:02.770Z,4.9
2019-02-17T04:53:04.161Z,4.9
2019-02-17T04:54:05.543Z,4.9
2019-02-17T04:55:06.925Z,4.9
2019-02-17T04:56:08.318Z,4.9
2019-02-17T04:57:09.704Z,4.9
2019-02-17T04:58:11.085Z,4.9
2019-02-17T04:59:12.472Z,4.9
2019-02-17T05:00:13.864Z,4.8
2019-02-17T05:01:15.253Z,4.9
2019-02-17T05:02:16.640Z,4.9
2019-02-17T05:03:18.028Z,4.9
2019-02-17T05:04:19.413Z,4.8
2019-02-17T05:05:20.802Z,4.9
2019-02-17T05:06:22.189Z,4.9
2019-02-17T05:07:23.581Z,4.9
2019-02-17T05:08:24.965Z,4.9
2019-02-17T05:09:26.351Z,4.9
2019-02-17T05:10:27.737Z,4.9
2019-02-17T05:11:29.127Z,4.9
2019-02-17T05:12:30.520Z,4.9
2019-02-17T05:13:31.903Z,4.9
2019-02-17T05:14:33.285Z,4.9
2019-02-17T05:15:34.671Z,5.0
2019-02-17T05:16:36.113Z,4.9
2019-02-17T05:17:37.479Z,4.9
2019-02-17T05:18:38.870Z,4.9
2019-02-17T05:19:40.256Z,4.9
2019-02-17T05:20:41.642Z,5.0
2019-02-17T05:21:43.027Z,5.0
2019-02-17T05:22:44.454Z,4.9
2019-02-17T05:23:45.867Z,4.9
2019-02-17T05:24:47.259Z,4.9
2019-02-17T05:25:48.705Z,4.9
2019-02-17T05:26:50.150Z,4.9
2019-02-17T05:27:51.472Z,4.9
2019-02-17T05:28:52.863Z,5.0
2019-02-17T05:29:54.245Z,4.9
2019-02-17T05:30:55.638Z,4.9
2019-02-17T05:31:57.038Z,4.8
2019-02-17T05:32:58.409Z,4.9
2019-02-17T05:33:59.795Z,4.9
2019-02-17T05:35:01.186Z,4.9
2019-02-17T05:36:02.572Z,4.9
2019-02-17T05:37:03.953Z,5.0
2019-02-17T05:38:05.343Z,5.0
2019-02-17T05:39:06.728Z,4.9
2019-02-17T05:40:08.113Z,4.9
2019-02-17T05:41:09.508Z,4.9
2019-02-17T05:42:10.898Z,4.9
2019-02-17T05:43:12.285Z,4.9
2019-02-17T05:44:13.671Z,4.9
2019-02-17T05:45:15.072Z,4.9
2019-02-17T05:46:16.451Z,4.9
2019-02-17T05:47:17.849Z,4.9
2019-02-17T05:48:19.231Z,5.0
2019-02-17T05:49:20.619Z,4.9
2019-02-17T05:50:22.004Z,4.9
2019-02-17T05:51:23.391Z,4.9
2019-02-17T05:52:24.820Z,4.8
2019-02-17T05:53:26.123Z,4.8
2019-02-17T05:54:27.515Z,4.9
2019-02-17T05:55:28.898Z,5.0
2019-02-17T05:56:30.281Z,4.9
2019-02-17T05:57:31.662Z,4.9
2019-02-17T05:58:33.046Z,5.0
2019-02-17T05:59:34.436Z,5.0
2019-02-17T06:00:35.849Z,4.9
2019-02-17T06:01:37.234Z,4.9
2019-02-17T06:02:38.622Z,4.8
2019-02-17T06:03:40.011Z,4.8
2019-02-17T06:04:41.397Z,4.9
2019-02-17T06:05:42.779Z,4.9
2019-02-17T06:06:44.168Z,4.9
2019-02-17T06:07:45.550Z,4.9
2019-02-17T06:08:46.934Z,4.8
2019-02-17T06:09:48.327Z,4.9
2019-02-17T06:10:49.711Z,4.9
2019-02-17T06:11:51.098Z,4.9
2019-02-17T06:12:52.486Z,5.0
2019-02-17T06:13:53.870Z,4.9
2019-02-17T06:14:55.261Z,5.0
2019-02-17T06:15:56.661Z,4.9
2019-02-17T06:16:58.064Z,5.0
2019-02-17T06:17:59.447Z,4.9
2019-02-17T06:19:00.832Z,5.0
2019-02-17T06:20:02.241Z,5.0
2019-02-17T06:21:03.625Z,5.0
2019-02-17T06:22:05.012Z,4.9
2019-02-17T06:23:06.396Z,5.0
2019-02-17T06:24:07.786Z,5.0
2019-02-17T06:25:09.175Z,4.9
2019-02-17T06:26:10.568Z,4.9
2019-02-17T06:27:11.953Z,5.0
2019-02-17T06:28:13.341Z,4.9
2019-02-17T06:29:14.724Z,4.9
2019-02-17T06:30:16.114Z,4.9
2019-02-17T06:31:17.507Z,4.9
2019-02-17T06:32:18.893Z,4.9
2019-02-17T06:33:20.282Z,4.9
2019-02-17T06:34:21.672Z,4.9
2019-02-17T06:35:23.064Z,4.9
2019-02-17T06:36:24.449Z,4.8
2019-02-17T06:37:25.842Z,4.8
2019-02-17T06:38:27.231Z,4.8
2019-02-17T06:39:28.618Z,4.9
2019-02-17T06:40:30.008Z,4.8
2019-02-17T06:41:31.391Z,4.8
2019-02-17T06:42:32.779Z,4.8
2019-02-17T06:43:34.171Z,4.8
2019-02-17T06:44:35.567Z,4.8
2019-02-17T06:45:36.954Z,4.8
2019-02-17T06:46:38.339Z,4.8
2019-02-17T06:47:39.721Z,4.8
2019-02-17T06:48:41.108Z,4.8
2019-02-17T06:49:42.500Z,4.8
2019-02-17T06:50:43.895Z,4.8
2019-02-17T06:51:45.287Z,4.9
2019-02-17T06:52:46.675Z,4.9
2019-02-17T06:53:48.066Z,5.0
2019-02-17T06:54:49.458Z,4.9
2019-02-17T06:55:50.851Z,5.0
2019-02-17T06:56:52.235Z,4.9
2019-02-17T06:57:53.624Z,4.9
2019-02-17T06:58:55.013Z,5.0
2019-02-17T06:59:56.403Z,5.0
2019-02-17T07:00:57.788Z,5.1
2019-02-17T07:01:59.246Z,5.2
2019-02-17T07:03:00.569Z,5.2
2019-02-17T07:04:01.986Z,5.3
2019-02-17T07:05:03.349Z,5.3
2019-02-17T07:06:04.723Z,5.4
2019-02-17T07:07:06.244Z,5.5
2019-02-17T07:08:07.632Z,5.5
2019-02-17T07:09:09.027Z,5.5
2019-02-17T07:10:10.422Z,5.5
2019-02-17T07:11:11.812Z,5.6
2019-02-17T07:12:13.205Z,5.6
2019-02-17T07:13:14.599Z,5.7
2019-02-17T07:14:15.995Z,5.7
2019-02-17T07:15:17.385Z,5.8
2019-02-17T07:16:18.773Z,5.8
2019-02-17T07:17:20.164Z,5.9
2019-02-17T07:18:21.577Z,5.8
2019-02-17T07:19:22.967Z,5.9
2019-02-17T07:20:24.360Z,6.0
2019-02-17T07:21:25.748Z,6.1
2019-02-17T07:22:27.132Z,6.0
2019-02-17T07:23:28.519Z,6.1
2019-02-17T07:24:29.903Z,6.2
2019-02-17T07:25:31.295Z,6.2
2019-02-17T07:26:32.684Z,6.3
2019-02-17T07:27:34.076Z,6.3
2019-02-17T07:28:35.464Z,6.4
2019-02-17T07:29:36.853Z,6.4
2019-02-17T07:30:38.241Z,6.4
2019-02-17T07:31:39.631Z,6.5
2019-02-17T07:32:41.024Z,6.6
2019-02-17T07:33:42.413Z,6.6
2019-02-17T07:34:43.805Z,6.7
2019-02-17T07:35:45.195Z,6.7
2019-02-17T07:36:46.580Z,6.7
2019-02-17T07:37:47.966Z,6.9
2019-02-17T07:38:49.352Z,6.9
2019-02-17T07:39:50.747Z,6.9
2019-02-17T07:40:52.146Z,6.9
2019-02-17T07:41:53.530Z,7.0
2019-02-17T07:42:54.933Z,7.0
2019-02-17T07:43:56.328Z,7.2
2019-02-17T07:44:57.720Z,7.1
2019-02-17T07:45:59.108Z,7.2
2019-02-17T07:47:00.494Z,7.2
2019-02-17T07:48:01.889Z,7.4
2019-02-17T07:49:03.279Z,7.4
2019-02-17T07:50:04.671Z,7.5
2019-02-17T07:51:06.061Z,7.5
2019-02-17T07:52:07.451Z,7.5
2019-02-17T07:53:08.838Z,7.6
2019-02-17T07:54:10.231Z,7.7
2019-02-17T07:55:11.629Z,7.7
2019-02-17T07:56:13.019Z,7.7
2019-02-17T07:57:14.459Z,7.8
2019-02-17T07:58:15.846Z,7.8
2019-02-17T07:59:17.239Z,7.9
2019-02-17T08:00:18.637Z,8.0
2019-02-17T08:01:20.023Z,8.0
2019-02-17T08:02:21.420Z,8.0
2019-02-17T08:03:22.809Z,8.0
2019-02-17T08:04:24.200Z,8.1
2019-02-17T08:05:25.585Z,8.2
2019-02-17T08:06:26.980Z,8.3
2019-02-17T08:07:28.372Z,8.2
2019-02-17T08:08:29.766Z,8.3
2019-02-17T08:09:31.177Z,8.3
2019-02-17T08:10:32.562Z,8.4
2019-02-17T08:11:33.954Z,8.5
2019-02-17T08:12:35.347Z,8.5
2019-02-17T08:13:36.750Z,8.6
2019-02-17T08:14:38.136Z,8.5
2019-02-17T08:15:39.529Z,8.6
2019-02-17T08:16:40.916Z,8.6
2019-02-17T08:17:42.308Z,8.6
2019-02-17T08:18:43.703Z,8.6
2019-02-17T08:19:45.089Z,8.7
2019-02-17T08:20:46.482Z,8.7
2019-02-17T08:21:47.891Z,8.8
2019-02-17T08:22:49.285Z,8.8
2019-02-17T08:23:50.673Z,8.8
2019-02-17T08:24:52.068Z,8.9
2019-02-17T08:25:53.460Z,8.9
2019-02-17T08:26:54.847Z,8.9
2019-02-17T08:27:56.249Z,9.0
2019-02-17T08:28:57.645Z,9.0
2019-02-17T08:29:59.034Z,9.1
2019-02-17T08:31:00.428Z,9.0
2019-02-17T08:32:01.822Z,9.1
2019-02-17T08:33:03.219Z,9.1
2019-02-17T08:34:04.614Z,9.2
2019-02-17T08:35:05.999Z,9.2
2019-02-17T08:36:07.396Z,9.2
2019-02-17T08:37:08.799Z,9.1
2019-02-17T08:38:10.195Z,9.2
2019-02-17T08:39:13.282Z,9.2
2019-02-17T08:41:00.768Z,9.3
2019-02-17T08:42:00.973Z,9.3
2019-02-17T08:43:02.754Z,9.4
2019-02-17T08:44:04.789Z,9.4
2019-02-17T08:45:06.517Z,9.5
2019-02-17T08:46:07.966Z,9.5
2019-02-17T08:47:09.409Z,9.4
2019-02-17T08:48:10.812Z,9.6
2019-02-17T08:49:12.200Z,9.6
2019-02-17T08:50:13.674Z,9.5
2019-02-17T08:51:15.134Z,9.7
2019-02-17T08:52:16.526Z,9.8
2019-02-17T08:53:17.925Z,9.7
2019-02-17T08:54:19.312Z,9.8
2019-02-17T08:55:20.705Z,9.8
2019-02-17T08:56:22.102Z,9.9
2019-02-17T08:57:23.515Z,9.9
2019-02-17T08:58:24.909Z,10.0
2019-02-17T08:59:26.302Z,10.1
2019-02-17T09:00:27.696Z,10.2
2019-02-17T09:01:29.095Z,10.3
2019-02-17T09:02:30.492Z,10.2
2019-02-17T09:03:31.916Z,10.3
2019-02-17T09:04:33.324Z,10.2
2019-02-17T09:05:43.636Z,10.2
2019-02-17T09:06:36.098Z,10.4
2019-02-17T09:07:37.493Z,10.4
2019-02-17T09:08:39.035Z,10.5
2019-02-17T09:09:40.437Z,10.5
2019-02-17T09:10:41.833Z,10.5
2019-02-17T09:11:43.232Z,10.5
2019-02-17T09:12:44.622Z,10.6
2019-02-17T09:13:46.061Z,10.7
2019-02-17T09:14:47.456Z,10.6
2019-02-17T09:15:48.857Z,10.7
2019-02-17T09:16:50.247Z,10.7
2019-02-17T09:17:51.640Z,10.7
2019-02-17T09:18:53.034Z,10.8
2019-02-17T09:19:54.434Z,10.8
2019-02-17T09:20:55.827Z,10.9
2019-02-17T09:21:57.220Z,11.0
2019-02-17T09:22:58.618Z,11.0
2019-02-17T09:24:00.013Z,11.1
2019-02-17T09:25:01.403Z,11.2
2019-02-17T09:26:03.350Z,11.3
2019-02-17T09:27:04.713Z,11.2
2019-02-17T09:28:06.114Z,11.4
2019-02-17T09:29:07.591Z,11.5
2019-02-17T09:30:08.945Z,11.6
2019-02-17T09:31:10.338Z,11.6
2019-02-17T09:32:16.249Z,11.8
2019-02-17T09:33:13.105Z,11.8
2019-02-17T09:34:14.498Z,11.9
2019-02-17T09:35:15.893Z,12.0
2019-02-17T09:36:17.292Z,12.2
2019-02-17T09:37:18.691Z,12.1
2019-02-17T09:38:20.096Z,12.2
2019-02-17T09:39:21.583Z,12.3
2019-02-17T09:40:22.863Z,12.5
2019-02-17T09:41:24.271Z,12.5
2019-02-17T09:42:25.670Z,12.6
2019-02-17T09:43:27.069Z,12.7
2019-02-17T09:44:28.469Z,12.7
2019-02-17T09:45:29.869Z,12.8
2019-02-17T09:46:31.340Z,12.8
2019-02-17T09:47:32.621Z,13.0
2019-02-17T09:48:34.018Z,13.1
2019-02-17T09:49:35.415Z,13.1
2019-02-17T09:50:36.828Z,13.2
2019-02-17T09:51:38.221Z,13.3
2019-02-17T09:52:39.581Z,13.5
2019-02-17T09:53:40.973Z,13.4
2019-02-17T09:54:42.368Z,13.5
2019-02-17T09:55:43.773Z,13.6
2019-02-17T09:56:45.183Z,13.6
2019-02-17T09:57:46.581Z,13.7
2019-02-17T09:58:48.061Z,13.8
2019-02-17T09:59:50.032Z,13.8
2019-02-17T10:00:51.429Z,14.0
2019-02-17T10:01:52.823Z,14.2
2019-02-17T10:02:54.219Z,14.3
2019-02-17T10:03:55.640Z,14.6
2019-02-17T10:04:57.048Z,14.6
2019-02-17T10:05:58.451Z,14.9
2019-02-17T10:06:59.858Z,15.0
2019-02-17T10:08:01.259Z,15.1
2019-02-17T10:09:02.660Z,15.2
2019-02-17T10:10:04.054Z,15.3
2019-02-17T10:11:05.507Z,15.4
2019-02-17T10:12:06.929Z,15.5
2019-02-17T10:13:08.334Z,15.6
2019-02-17T10:14:09.768Z,15.7
2019-02-17T10:15:11.186Z,15.9
2019-02-17T10:16:12.604Z,16.1
2019-02-17T10:17:14.077Z,16.1
2019-02-17T10:18:15.480Z,16.2
2019-02-17T10:19:17.168Z,16.4
2019-02-17T10:20:18.614Z,16.4
2019-02-17T10:21:20.009Z,16.4
2019-02-17T10:22:21.443Z,16.6
2019-02-17T10:23:22.841Z,16.6
2019-02-17T10:24:24.243Z,16.8
2019-02-17T10:25:25.645Z,16.8
2019-02-17T10:26:27.048Z,16.8
2019-02-17T10:27:28.458Z,16.8
2019-02-17T10:28:42.074Z,16.9
2019-02-17T10:29:36.238Z,16.9
2019-02-17T10:30:37.666Z,17.1
2019-02-17T10:31:40.808Z,17.3
2019-02-17T10:32:42.679Z,17.6
2019-02-17T10:33:44.274Z,18.0
2019-02-17T10:34:46.997Z,18.2
2019-02-17T10:35:49.171Z,18.6
2019-02-17T10:36:51.027Z,19.0
2019-02-17T10:37:52.927Z,19.4
2019-02-17T10:38:54.313Z,19.9
2019-02-17T10:39:56.252Z,20.2
2019-02-17T10:40:58.032Z,20.8
2019-02-17T10:41:59.856Z,21.2
2019-02-17T10:43:03.519Z,21.5
2019-02-17T10:44:03.347Z,21.9
2019-02-17T10:45:04.748Z,22.4
2019-02-17T10:46:06.609Z,22.9
2019-02-17T10:47:08.358Z,23.3
2019-02-17T10:48:09.727Z,23.6
2019-02-17T10:49:11.552Z,23.8
2019-02-17T10:50:13.616Z,24.0
2019-02-17T10:51:15.494Z,24.2
2019-02-17T10:52:17.615Z,24.1
2019-02-17T10:53:20.030Z,24.2
2019-02-17T10:54:23.174Z,24.4
2019-02-17T10:55:23.516Z,24.8
2019-02-17T10:56:25.258Z,25.3
2019-02-17T10:57:27.188Z,25.6
2019-02-17T10:58:28.569Z,25.9
2019-02-17T11:00:11.941Z,26.0
2019-02-17T11:01:13.327Z,25.9
2019-02-17T11:02:15.286Z,26.1
2019-02-17T11:03:17.832Z,26.4
2019-02-17T11:04:19.241Z,26.7
2019-02-17T11:05:20.652Z,26.8
2019-02-17T11:06:22.447Z,27.0
2019-02-17T11:07:23.968Z,27.1
2019-02-17T11:08:25.367Z,27.4
2019-02-17T11:09:26.784Z,27.8
2019-02-17T11:10:28.183Z,28.0
2019-02-17T11:11:30.221Z,28.2
2019-02-17T11:12:31.595Z,28.6
2019-02-17T11:13:32.998Z,28.7
2019-02-17T11:14:34.404Z,28.9
2019-02-17T11:15:35.813Z,29.2
2019-02-17T11:16:39.196Z,29.5
2019-02-17T11:17:42.489Z,29.6
2019-02-17T11:18:43.939Z,29.8
2019-02-17T11:19:45.354Z,29.9
2019-02-17T11:20:46.763Z,30.2
2019-02-17T11:21:48.904Z,30.3
2019-02-17T11:22:50.768Z,30.3
2019-02-17T11:23:52.182Z,30.2
2019-02-17T11:24:53.622Z,30.2
2019-02-17T11:25:55.029Z,30.3
2019-02-17T11:26:56.434Z,30.5
2019-02-17T11:28:01.088Z,30.3
2019-02-17T11:29:02.491Z,29.8
2019-02-17T11:30:05.412Z,29.4
2019-02-17T11:31:05.268Z,28.8
2019-02-17T11:32:06.675Z,28.3
2019-02-17T11:33:08.652Z,27.8
2019-02-17T11:34:10.079Z,27.4
2019-02-17T11:35:11.491Z,27.2
2019-02-17T11:36:12.898Z,26.8
2019-02-17T11:37:14.300Z,26.4
2019-02-17T11:38:17.183Z,26.3
2019-02-17T11:39:18.592Z,25.9
2019-02-17T11:40:19.998Z,25.6
2019-02-17T11:41:21.412Z,25.4
2019-02-17T11:42:22.816Z,25.6
2019-02-17T11:43:27.896Z,25.9
2019-02-17T11:44:29.300Z,26.3
2019-02-17T11:45:31.618Z,26.8
2019-02-17T11:46:33.024Z,26.8
2019-02-17T11:47:34.431Z,26.5
2019-02-17T11:48:35.841Z,26.3
2019-02-17T11:49:37.243Z,25.9
2019-02-17T11:50:38.646Z,25.6
2019-02-17T11:51:40.050Z,25.3
2019-02-17T11:52:41.451Z,25.0
2019-02-17T11:53:42.856Z,24.8
2019-02-17T11:54:44.263Z,24.7
2019-02-17T11:55:45.780Z,24.5
2019-02-17T11:56:47.198Z,24.5
2019-02-17T11:57:48.608Z,24.2
2019-02-17T11:58:50.008Z,24.3
2019-02-17T11:59:51.413Z,24.1
2019-02-17T12:00:52.831Z,23.9
2019-02-17T12:01:54.235Z,24.1
2019-02-17T12:02:55.642Z,24.2
2019-02-17T12:03:57.047Z,24.8
2019-02-17T12:04:58.447Z,25.3
2019-02-17T12:05:59.849Z,25.7
2019-02-17T12:07:01.247Z,25.9
2019-02-17T12:08:02.649Z,25.9
2019-02-17T12:09:04.054Z,25.9
2019-02-17T12:10:05.465Z,25.4
2019-02-17T12:11:06.884Z,25.2
2019-02-17T12:12:08.285Z,25.0
2019-02-17T12:13:10.138Z,24.9
2019-02-17T12:14:11.546Z,24.7
2019-02-17T12:15:13.052Z,24.5
2019-02-17T12:16:14.454Z,24.3
2019-02-17T12:17:15.947Z,24.3
2019-02-17T12:18:17.346Z,24.0
2019-02-17T12:19:18.772Z,23.9
2019-02-17T12:20:20.248Z,23.9
2019-02-17T12:21:21.652Z,23.8
2019-02-17T12:22:23.111Z,23.8
2019-02-17T12:23:24.586Z,23.7
2019-02-17T12:24:26.022Z,23.6
2019-02-17T12:25:27.426Z,23.6
2019-02-17T12:26:28.835Z,23.4
2019-02-17T12:27:30.239Z,23.4
2019-02-17T12:28:31.648Z,23.4
2019-02-17T12:29:33.052Z,23.4
2019-02-17T12:30:34.455Z,23.4
2019-02-17T12:31:35.863Z,23.4
2019-02-17T12:32:37.266Z,23.3
2019-02-17T12:33:38.695Z,23.3
2019-02-17T12:34:40.095Z,23.2
2019-02-17T12:35:41.499Z,23.2
2019-02-17T12:36:42.928Z,23.2
2019-02-17T12:37:44.333Z,23.2
2019-02-17T12:38:45.739Z,23.1
2019-02-17T12:39:47.324Z,23.2
2019-02-17T12:40:48.726Z,23.1
2019-02-17T12:41:50.154Z,23.1
2019-02-17T12:42:51.566Z,23.2
2019-02-17T12:43:52.962Z,23.3
2019-02-17T12:44:54.361Z,23.4
2019-02-17T12:45:55.774Z,23.4
2019-02-17T12:46:57.179Z,23.4
2019-02-17T12:47:58.626Z,23.4
2019-02-17T12:49:00.000Z,23.5
2019-02-17T12:50:01.398Z,23.6
2019-02-17T12:51:02.804Z,23.5
2019-02-17T12:52:04.205Z,23.7
2019-02-17T12:53:05.612Z,23.7
2019-02-17T12:54:07.008Z,23.8
2019-02-17T12:55:08.409Z,23.7
2019-02-17T12:56:09.812Z,23.8
2019-02-17T12:57:11.214Z,23.8
2019-02-17T12:58:12.624Z,23.8
2019-02-17T12:59:14.027Z,23.8
2019-02-17T13:00:15.433Z,23.8
2019-02-17T13:01:16.863Z,23.7
2019-02-17T13:02:18.264Z,23.7
2019-02-17T13:03:28.274Z,23.8
2019-02-17T13:04:21.205Z,23.7
2019-02-17T13:05:22.608Z,23.8
2019-02-17T13:06:26.470Z,23.8
2019-02-17T13:07:25.380Z,23.8
2019-02-17T13:08:26.779Z,23.8
2019-02-17T13:09:28.178Z,23.8
2019-02-17T13:10:29.577Z,24.0
2019-02-17T13:11:30.982Z,23.9
2019-02-17T13:12:32.431Z,23.9
2019-02-17T13:13:34.043Z,23.9
2019-02-17T13:14:35.450Z,23.9
2019-02-17T13:15:36.856Z,24.0
2019-02-17T13:16:38.260Z,24.1
2019-02-17T13:17:39.674Z,24.2
2019-02-17T13:18:41.072Z,24.2
2019-02-17T13:19:42.474Z,24.2
2019-02-17T13:20:43.882Z,24.1
2019-02-17T13:21:45.286Z,24.2
2019-02-17T13:22:46.689Z,24.2
2019-02-17T13:23:48.093Z,24.2
2019-02-17T13:24:49.496Z,24.2
2019-02-17T13:25:50.893Z,24.2
2019-02-17T13:26:52.298Z,24.2
2019-02-17T13:27:53.702Z,24.2
2019-02-17T13:28:55.156Z,24.2
2019-02-17T13:29:56.699Z,24.3
2019-02-17T13:30:58.106Z,24.3
2019-02-17T13:31:59.561Z,24.3
2019-02-17T13:33:00.968Z,24.4
2019-02-17T13:34:02.355Z,24.4
2019-02-17T13:35:03.768Z,24.4
2019-02-17T13:36:05.170Z,24.3
2019-02-17T13:37:06.576Z,24.4
2019-02-17T13:38:07.981Z,24.3
2019-02-17T13:39:09.383Z,24.3
2019-02-17T13:40:10.787Z,24.3
2019-02-17T13:41:12.189Z,24.3
2019-02-17T13:42:13.650Z,24.4
2019-02-17T13:43:15.028Z,24.3
2019-02-17T13:44:16.425Z,24.3
2019-02-17T13:45:17.917Z,24.3
2019-02-17T13:46:19.311Z,24.4
2019-02-17T13:47:20.761Z,24.4
2019-02-17T13:48:22.166Z,24.3
2019-02-17T13:49:23.570Z,24.3
2019-02-17T13:50:24.980Z,24.2
2019-02-17T13:51:26.374Z,24.2
2019-02-17T13:52:27.784Z,24.2
2019-02-17T13:53:29.251Z,24.3
2019-02-17T13:54:30.667Z,24.2
2019-02-17T13:55:32.070Z,24.2
2019-02-17T13:56:33.477Z,24.2